ADDS METAR Data INFO
IDs: Format: Raw Decoded Include TAF

Data at: 0922 UTC 13 Dec 2017

PADL 130856Z AUTO 10008KT 10SM OVC039 02/01 A2946 RMK AO2 SLP981 T00220011 400390017 53006 FZRANO
PADL 130756Z AUTO 13009KT 10SM CLR 02/01 A2945 RMK AO2 SLP977 T00220011 FZRANO
PADL 130656Z AUTO 12009KT 10SM SCT035 BKN044 03/02 A2944 RMK AO2 SLP974 T00280017
PADL 130651Z AUTO 12011KT 10SM BKN035 OVC044 03/02 A2944 RMK AO2
PADL 130556Z 10007KT 10SM BKN015 OVC075 03/02 A2943 RMK AO2 SLP970 T00280017 10039 20022 53019
PADL 130456Z 08005KT 10SM FEW045 BKN070 03/01 A2941 RMK AO2 SLP963 T00280011
PADL 130356Z 13013KT 10SM SCT015 BKN045 BKN120 03/02 A2938 RMK AO2 SLP955 T00280017
PADL 130256Z 13007KT 10SM SCT016 BKN035 BKN120 03/01 A2937 RMK AO2 SLP952 T00280011 53025
PADL 130156Z 09007KT 10SM SCT016 BKN033 BKN120 03/01 A2934 RMK AO2 SLP941 T00280011
PADL 130056Z 12012KT 10SM FEW025 BKN100 03/01 A2932 RMK AO2 SLP933 T00330011
PADL 122356Z 10013KT 10SM SCT020 BKN090 03/02 A2930 RMK AO2 SLP927 60003 T00330017 10033 20022 53005
PADL 122256Z 10011KT 10SM FEW020 SCT060 BKN090 03/01 A2929 RMK AO2 SLP922 T00330011
PADL 122156Z 10012G19KT 10SM SCT020 BKN050 BKN070 03/02 A2929 RMK AO2 RAE11 SLP923 P0001 T00330017
PADL 122056Z 09011KT 10SM -RA OVC024 03/02 A2929 RMK AO2 SLP922 P0001 60002 T00280017 53005
PADL 122021Z 07010G17KT 8SM -RA BKN026 OVC032 02/01 A2929 RMK AO2 P0001
PADL 121956Z 07012KT 9SM -RA BKN030 OVC042 02/01 A2928 RMK AO2 UPB11E20RAB20 SLP921 P0001 T00220011
PADL 121856Z 05013KT 10SM OVC033 02/01 A2927 RMK AO2 RAE05UPB20E32 SLP916 P0000 T00220011
PADL 121756Z 06011KT 10SM -RA FEW028 OVC040 02/01 A2927 RMK AO2 RAE20B37UPB22E37 SLP917 P0000 60000 T00220011 10022 20017 53004
PADL 121656Z 05013KT 10SM -RA OVC031 02/01 A2927 RMK AO2 RAB15 SLP918 P0000 T00220006
PADL 121556Z AUTO 05012G17KT 10SM FEW060 OVC110 02/00 A2925 RMK AO2 SLP912 T00220000 FZRANO
PADL 121456Z AUTO 04011KT 10SM SCT120 02/01 A2926 RMK AO2 SLP913 T00220006 56005 FZRANO
PADL 121356Z AUTO 05012KT 10SM CLR 02/01 A2926 RMK AO2 SLP914 T00220006 FZRANO
PADL 121256Z AUTO 04009KT 10SM CLR 02/00 A2926 RMK AO2 SLP915 T00170000 FZRANO
PADL 121156Z AUTO 05009KT 10SM BKN048 02/00 A2928 RMK AO2 SLP919 60001 70002 T00170000 10022 20017 56004 FZRANO
PADL 121056Z AUTO 05008KT 10SM OVC048 02/01 A2928 RMK AO2 RAE18 SLP921 P0000 T00220006 FZRANO
PADL 120956Z AUTO 06010KT 10SM -RA OVC055 02/01 A2928 RMK AO2 RAE01B34 SLP920 P0000 T00220006 FZRANO
PADL 120856Z AUTO 05012KT 10SM -RA OVC055 02/01 A2929 RMK AO2 RAE26B51 SLP923 P0001 60001 T00220006 400220000 56006 FZRANO
PADL 120756Z AUTO 05010KT 10SM -RA OVC055 02/01 A2929 RMK AO2 RAE18B38UPB36E38 SLP925 P0000 T00220006 FZRANO
PADL 120656Z AUTO 04012KT 10SM -RA FEW032 OVC060 02/01 A2930 RMK AO2 SLP926 P0000 T00220006 FZRANO
PADL 120556Z 05012KT 10SM -RA FEW020 OVC040 02/01 A2931 RMK AO2 RAB52 SLP930 P0000 60001 T00220006 10022 20011 58012
PADL 120456Z 04013KT 10SM SCT020 OVC040 02/01 A2931 RMK AO2 RAE52 SLP932 P0000 T00170011
PADL 120356Z 05010KT 10SM -RA BKN019 OVC040 01/01 A2934 RMK AO2 UPB06E12 SLP940 P0001 T00110006
PADL 120345Z 05009KT 10SM -RA BKN019 OVC040 01/01 A2934 RMK AO2 UPB06E12 P0001
PADL 120256Z 06007KT 10SM -RA SCT018 OVC060 01/01 A2934 RMK AO2 UPB22E29RAB29 SLP942 P0000 60000 T00110006 51009
PADL 120156Z 05006KT 10SM SCT065 BKN110 01/00 A2934 RMK AO2 SLP940 T00110000
PADL 120056Z 12007KT 10SM CLR 02/01 A2933 RMK AO2 SLP936 T00170006
PADL 112356Z 14009KT 10SM SCT040 02/02 A2931 RMK AO2 UPB2259E08RAB08E14 SLP932 P0000 60000 T00220017 10022 20000 51031
PADL 112256Z 12007KT 10SM OVC010 01/01 A2930 RMK AO2 RAE22B38E50 SLP927 P0000 T00110011
PADL 112228Z 14006KT 7SM OVC010 01/01 A2929 RMK AO2 RAE22 P0000
PADL 112221Z 15007KT 2SM -RA BR VV008 01/01 A2929 RMK AO2 PCPN VRY LGT P0000
PADL 112203Z 15008KT 3/4SM -RA BR VV008 01/01 A2928 RMK AO2 P0000
PADL 112147Z 14011KT 1SM -RA BR BKN006 OVC013 01/01 A2927 RMK AO2 UPB23E24RAB25 CIG 003V008 P0000
PADL 112139Z 14008KT 1 3/4SM -RA BR BKN008 OVC011 01/01 A2926 RMK AO2 VIS 3/4V4 UPB23E24RAB25 P0000